Startpagina
METAR-TAF:

METAR-TAF

Vliegvelden :

Luchthaven Helsinki-Vantaa

Helsinki, Finland

breedte: 60-19N, lengte: 024-58E, hoogte: 51 m

Actueel weer

Dit bericht is 29 minuten geleden gemaakt, om 20:50 UTC
Wind 5 kt uit het zuidwesten
Temperatuur 20°C
Vochtigheid 94%
Druk 1005 hPa
Zicht 10 km of meer
Weinig wolken op 2500 ft

METAR: EFHK 212050Z 22005KT 9999 FEW025 20/19 Q1005 NOSIG

Tijdstip: 00:19 (21:19 UTC)

Verwachting

Dit bericht is 49 minuten geleden gemaakt, om 20:30 UTC
Verwachting geldig van 21 om 21 UTC tot 22 om 21 UTC
Wind 5 kt uit het zuidwesten
Zicht 10 km of meer
Weinig wolken op 2500 ft
Kans 30%
van 21 om 23 UTC tot 22 om 03 UTC
Zicht: 1100 m
Gebroken wolken op 300 ft
mistbanken
Kans 30% :
Tijdelijke
van 22 om 08 UTC tot 22 om 12 UTC
Weinig wolken op 4000 ft, Cumulonimbus.

TAF: EFHK 212030Z 2121/2221 22005KT 9999 FEW025 PROB30 2123/2203 1100 BCFG BKN003 PROB30 TEMPO 2208/2212 FEW040CB

Waarnemingen en weersverwachtingen van meer dan 4000 vliegvelden (METAR en TAF).

De beschikbare stations zijn de gele en rode punten op de kaart.

Ga met uw muis naar het station om de naam te zien.

Klik dan om waarnemingen en weersverwachtingen te zien.

kaart wijzigen: klik op de groene knoppen met een zwart kruis om in te zoomen, op de groene knop met een streepje om uit te zoomen of op de groene pijlen voor aangrenzende kaarten.


METAR-TAF: